createdAt,value
2017-05-25T00:00:51.703Z,0
2017-05-25T00:02:13.885Z,0
2017-05-25T00:03:36.305Z,0
2017-05-25T00:04:58.149Z,0
2017-05-25T00:06:20.628Z,0
2017-05-25T00:07:42.804Z,0
2017-05-25T00:09:04.905Z,0
2017-05-25T00:10:27.031Z,0
2017-05-25T00:11:48.544Z,0
2017-05-25T00:13:10.385Z,0
2017-05-25T00:14:32.828Z,0
2017-05-25T00:15:54.365Z,0
2017-05-25T00:17:16.874Z,0
2017-05-25T00:18:39.107Z,0
2017-05-25T00:20:01.864Z,0
2017-05-25T00:21:23.697Z,0
2017-05-25T00:22:45.913Z,0
2017-05-25T00:24:08.150Z,0
2017-05-25T00:25:30.945Z,0
2017-05-25T00:26:52.827Z,0
2017-05-25T00:28:14.703Z,0
2017-05-25T00:29:36.204Z,0
2017-05-25T00:30:58.378Z,0
2017-05-25T00:32:20.216Z,0
2017-05-25T00:33:42.366Z,0
2017-05-25T00:35:03.886Z,0
2017-05-25T00:36:26.964Z,0
2017-05-25T00:37:48.476Z,0
2017-05-25T00:39:11.057Z,0
2017-05-25T00:40:33.509Z,0
2017-05-25T00:41:55.327Z,0
2017-05-25T00:43:16.822Z,0
2017-05-25T00:44:38.119Z,0
2017-05-25T00:46:00.385Z,0
2017-05-25T00:47:22.787Z,0
2017-05-25T00:48:45.081Z,0
2017-05-25T00:50:07.216Z,0
2017-05-25T00:51:29.714Z,0
2017-05-25T00:52:52.245Z,0
2017-05-25T00:54:13.815Z,0
2017-05-25T00:55:36.053Z,0
2017-05-25T00:56:57.571Z,0
2017-05-25T00:58:19.953Z,0
2017-05-25T00:59:42.464Z,0
2017-05-25T01:01:03.732Z,0
2017-05-25T01:02:25.294Z,0
2017-05-25T01:03:47.054Z,0
2017-05-25T01:05:08.874Z,0
2017-05-25T01:06:31.353Z,0
2017-05-25T01:07:53.194Z,0
2017-05-25T01:09:15.336Z,0
2017-05-25T01:10:37.495Z,0
2017-05-25T01:11:59.019Z,0
2017-05-25T01:13:21.179Z,0
2017-05-25T01:14:43.058Z,0
2017-05-25T01:16:04.884Z,0
2017-05-25T01:17:26.734Z,0
2017-05-25T01:18:48.549Z,0
2017-05-25T01:20:11.045Z,0
2017-05-25T01:21:33.180Z,0
2017-05-25T01:22:55.143Z,0
2017-05-25T01:24:17.614Z,0
2017-05-25T01:25:40.115Z,0
2017-05-25T01:27:02.255Z,0
2017-05-25T01:28:23.774Z,0
2017-05-25T01:29:45.944Z,0
2017-05-25T01:31:08.037Z,0
2017-05-25T01:32:30.484Z,0
2017-05-25T01:33:52.334Z,0
2017-05-25T01:35:14.164Z,0
2017-05-25T01:36:36.003Z,0
2017-05-25T01:37:57.820Z,0
2017-05-25T01:39:19.322Z,0
2017-05-25T01:40:41.174Z,0
2017-05-25T01:42:03.410Z,0
2017-05-25T01:43:25.551Z,0
2017-05-25T01:44:48.082Z,0
2017-05-25T01:46:10.242Z,0
2017-05-25T01:47:32.778Z,0
2017-05-25T01:48:54.633Z,0
2017-05-25T01:50:16.485Z,0
2017-05-25T01:51:37.995Z,0
2017-05-25T01:53:00.453Z,0
2017-05-25T01:54:21.652Z,0
2017-05-25T01:55:43.484Z,0
2017-05-25T01:57:05.654Z,0
2017-05-25T01:58:28.542Z,0
2017-05-25T01:59:50.702Z,0
2017-05-25T02:01:12.888Z,0
2017-05-25T02:02:35.052Z,0
2017-05-25T02:03:57.857Z,0
2017-05-25T02:05:19.381Z,0
2017-05-25T02:06:41.204Z,0
2017-05-25T02:08:03.817Z,0
2017-05-25T02:09:25.961Z,0
2017-05-25T02:10:48.346Z,0
2017-05-25T02:12:10.811Z,0
2017-05-25T02:13:32.643Z,0
2017-05-25T02:14:54.834Z,0
2017-05-25T02:16:16.970Z,0
2017-05-25T02:17:38.851Z,0
2017-05-25T02:19:00.054Z,0
2017-05-25T02:20:22.614Z,0
2017-05-25T02:21:44.453Z,0
2017-05-25T02:23:06.622Z,0
2017-05-25T02:24:28.446Z,0
2017-05-25T02:25:50.946Z,0
2017-05-25T02:27:13.095Z,0
2017-05-25T02:28:35.248Z,0
2017-05-25T02:29:57.096Z,0
2017-05-25T02:31:19.593Z,0
2017-05-25T02:32:41.553Z,4
2017-05-25T02:34:03.852Z,4
2017-05-25T02:35:25.383Z,0
2017-05-25T02:36:47.801Z,0
2017-05-25T02:38:09.644Z,0
2017-05-25T02:39:32.198Z,4
2017-05-25T02:40:54.145Z,4
2017-05-25T02:42:16.214Z,8
2017-05-25T02:43:37.731Z,8
2017-05-25T02:44:59.565Z,4
2017-05-25T02:46:21.710Z,8
2017-05-25T02:47:44.207Z,12
2017-05-25T02:49:06.354Z,8
2017-05-25T02:50:27.874Z,12
2017-05-25T02:51:50.033Z,12
2017-05-25T02:53:12.500Z,16
2017-05-25T02:54:34.013Z,20
2017-05-25T02:55:55.851Z,20
2017-05-25T02:57:18.034Z,28
2017-05-25T02:58:40.434Z,28
2017-05-25T03:00:02.323Z,36
2017-05-25T03:01:24.214Z,40
2017-05-25T03:02:46.376Z,48
2017-05-25T03:04:09.183Z,48
2017-05-25T03:05:31.501Z,60
2017-05-25T03:06:53.634Z,68
2017-05-25T03:08:15.461Z,68
2017-05-25T03:09:37.904Z,72
2017-05-25T03:10:59.731Z,80
2017-05-25T03:12:21.264Z,100
2017-05-25T03:13:43.191Z,100
2017-05-25T03:15:05.821Z,112
2017-05-25T03:16:27.653Z,124
2017-05-25T03:17:49.824Z,156
2017-05-25T03:19:11.954Z,168
2017-05-25T03:20:34.383Z,180
2017-05-25T03:21:56.207Z,224
2017-05-25T03:23:17.720Z,272
2017-05-25T03:24:39.639Z,276
2017-05-25T03:26:01.754Z,304
2017-05-25T03:27:24.208Z,404
2017-05-25T03:28:46.355Z,408
2017-05-25T03:30:08.193Z,448
2017-05-25T03:31:30.754Z,484
2017-05-25T03:32:52.906Z,516
2017-05-25T03:34:14.487Z,804
2017-05-25T03:35:36.668Z,976
2017-05-25T03:36:58.890Z,904
2017-05-25T03:38:21.113Z,988
2017-05-25T03:39:42.954Z,1040
2017-05-25T03:41:04.473Z,912
2017-05-25T03:42:26.653Z,1000
2017-05-25T03:43:47.935Z,1200
2017-05-25T03:45:10.093Z,1276
2017-05-25T03:46:31.302Z,1440
2017-05-25T03:47:53.491Z,1636
2017-05-25T03:49:15.654Z,1708
2017-05-25T03:50:37.492Z,1680
2017-05-25T03:51:59.674Z,1564
2017-05-25T03:53:21.845Z,1360
2017-05-25T03:54:44.444Z,1448
2017-05-25T03:56:06.583Z,1692
2017-05-25T03:57:28.439Z,1572
2017-05-25T03:58:49.930Z,1400
2017-05-25T04:00:11.774Z,1408
2017-05-25T04:01:33.281Z,1636
2017-05-25T04:02:55.011Z,1740
2017-05-25T04:04:17.144Z,1748
2017-05-25T04:05:39.764Z,2072
2017-05-25T04:07:01.594Z,2248
2017-05-25T04:08:23.884Z,2148
2017-05-25T04:09:46.176Z,2068
2017-05-25T04:11:08.512Z,2508
2017-05-25T04:12:31.027Z,3184
2017-05-25T04:13:53.233Z,3628
2017-05-25T04:15:14.685Z,3280
2017-05-25T04:16:36.576Z,3548
2017-05-25T04:17:59.034Z,4464
2017-05-25T04:19:21.174Z,4452
2017-05-25T04:20:43.609Z,4792
2017-05-25T04:22:05.134Z,4768
2017-05-25T04:23:27.694Z,3768
2017-05-25T04:24:49.524Z,3564
2017-05-25T04:26:11.994Z,4536
2017-05-25T04:27:34.464Z,4928
2017-05-25T04:28:56.724Z,4928
2017-05-25T04:30:18.266Z,5124
2017-05-25T04:31:40.125Z,4820
2017-05-25T04:33:01.995Z,4668
2017-05-25T04:34:23.825Z,4432
2017-05-25T04:35:46.421Z,3340
2017-05-25T04:37:08.814Z,3588
2017-05-25T04:38:30.974Z,3920
2017-05-25T04:39:52.810Z,4680
2017-05-25T04:41:14.324Z,3616
2017-05-25T04:42:36.794Z,2928
2017-05-25T04:43:58.689Z,2832
2017-05-25T04:45:20.817Z,2748
2017-05-25T04:46:43.491Z,2664
2017-05-25T04:48:06.263Z,2528
2017-05-25T04:49:28.099Z,2264
2017-05-25T04:50:49.949Z,2088
2017-05-25T04:52:11.162Z,2272
2017-05-25T04:53:34.031Z,2328
2017-05-25T04:54:55.866Z,2352
2017-05-25T04:56:17.383Z,2420
2017-05-25T04:57:39.205Z,2172
2017-05-25T04:59:01.677Z,2200
2017-05-25T05:00:23.603Z,2240
2017-05-25T05:01:45.564Z,2108
2017-05-25T05:03:07.384Z,2752
2017-05-25T05:04:29.646Z,2676
2017-05-25T05:05:51.807Z,2436
2017-05-25T05:07:13.417Z,2684
2017-05-25T05:08:36.014Z,2728
2017-05-25T05:09:58.520Z,3004
2017-05-25T05:11:20.726Z,2592
2017-05-25T05:12:42.565Z,3052
2017-05-25T05:14:04.725Z,3316
2017-05-25T05:15:27.125Z,3388
2017-05-25T05:16:49.277Z,3048
2017-05-25T05:18:10.934Z,2864
2017-05-25T05:19:32.762Z,3744
2017-05-25T05:20:54.633Z,3764
2017-05-25T05:22:16.144Z,3416
2017-05-25T05:23:37.995Z,3568
2017-05-25T05:25:00.134Z,3320
2017-05-25T05:26:22.966Z,3616
2017-05-25T05:27:44.889Z,3068
2017-05-25T05:29:06.843Z,2976
2017-05-25T05:30:28.190Z,2672
2017-05-25T05:31:50.126Z,2560
2017-05-25T05:33:11.985Z,2368
2017-05-25T05:34:34.146Z,2528
2017-05-25T05:35:56.111Z,2312
2017-05-25T05:37:18.834Z,2336
2017-05-25T05:38:40.724Z,2352
2017-05-25T05:40:02.880Z,2368
2017-05-25T05:41:25.042Z,2292
2017-05-25T05:42:47.546Z,2100
2017-05-25T05:44:09.702Z,2252
2017-05-25T05:45:31.218Z,2272
2017-05-25T05:46:53.373Z,2256
2017-05-25T05:48:16.212Z,2200
2017-05-25T05:49:37.744Z,2144
2017-05-25T05:51:00.259Z,2008
2017-05-25T05:52:21.785Z,2364
2017-05-25T05:53:43.973Z,3024
2017-05-25T05:55:06.460Z,3096
2017-05-25T05:56:28.400Z,2856
2017-05-25T05:57:50.315Z,2584
2017-05-25T05:59:12.617Z,2720
2017-05-25T06:00:34.915Z,2632
2017-05-25T06:01:57.455Z,2332
2017-05-25T06:03:19.621Z,2588
2017-05-25T06:04:41.925Z,2660
2017-05-25T06:06:04.415Z,2564
2017-05-25T06:07:26.244Z,2456
2017-05-25T06:08:48.191Z,2732
2017-05-25T06:10:10.704Z,2772
2017-05-25T06:11:32.653Z,2364
2017-05-25T06:12:54.818Z,2908
2017-05-25T06:14:16.944Z,2812
2017-05-25T06:15:39.554Z,2648
2017-05-25T06:17:02.025Z,3060
2017-05-25T06:18:23.945Z,3128
2017-05-25T06:19:46.549Z,3196
2017-05-25T06:21:08.854Z,3704
2017-05-25T06:22:31.011Z,3500
2017-05-25T06:23:53.185Z,3540
2017-05-25T06:25:15.394Z,3304
2017-05-25T06:26:37.820Z,3452
2017-05-25T06:27:59.035Z,3508
2017-05-25T06:29:23.176Z,2912
2017-05-25T06:30:47.855Z,3288
2017-05-25T06:32:10.377Z,5112
2017-05-25T06:33:32.534Z,6896
2017-05-25T06:34:54.694Z,6852
2017-05-25T06:38:00.041Z,7540
2017-05-25T06:39:23.126Z,7464
2017-05-25T06:40:46.898Z,7920
2017-05-25T06:42:09.593Z,8008
2017-05-25T06:43:33.713Z,8104
2017-05-25T06:44:56.187Z,7848
2017-05-25T06:46:18.648Z,7552
2017-05-25T06:47:40.982Z,7500
2017-05-25T06:49:04.823Z,7580
2017-05-25T06:50:27.453Z,7992
2017-05-25T06:51:49.923Z,8076
2017-05-25T06:53:12.321Z,8928
2017-05-25T06:54:34.871Z,9584
2017-05-25T06:55:56.698Z,8804
2017-05-25T06:57:18.869Z,8936
2017-05-25T06:58:41.027Z,8928
2017-05-25T07:00:03.145Z,7940
2017-05-25T07:01:25.016Z,7964
2017-05-25T07:02:46.855Z,7760
2017-05-25T07:04:09.499Z,7592
2017-05-25T07:05:32.012Z,8036
2017-05-25T07:06:54.192Z,8012
2017-05-25T07:08:16.689Z,7668
2017-05-25T07:09:38.541Z,8928
2017-05-25T07:11:00.646Z,9204
2017-05-25T07:12:22.809Z,9584
2017-05-25T07:13:45.383Z,8700
2017-05-25T07:15:07.583Z,6892
2017-05-25T07:16:30.542Z,6404
2017-05-25T07:17:52.734Z,6672
2017-05-25T07:19:14.923Z,8428
2017-05-25T07:20:37.101Z,9672
2017-05-25T07:22:00.043Z,10148
2017-05-25T07:23:22.022Z,11056
2017-05-25T07:24:44.197Z,9604
2017-05-25T07:26:06.349Z,9296
2017-05-25T07:27:28.938Z,12148
2017-05-25T07:28:51.116Z,11544
2017-05-25T07:30:13.350Z,10636
2017-05-25T07:31:35.492Z,12284
2017-05-25T07:32:57.704Z,11968
2017-05-25T07:34:19.886Z,14428
2017-05-25T07:35:42.051Z,16544
2017-05-25T07:37:04.215Z,19680
2017-05-25T07:38:26.084Z,19840
2017-05-25T07:39:48.578Z,23232
2017-05-25T07:41:11.054Z,21920
2017-05-25T07:42:33.530Z,19040
2017-05-25T07:43:56.152Z,18176
2017-05-25T07:45:18.441Z,19808
2017-05-25T07:46:40.300Z,15024
2017-05-25T07:48:02.449Z,15964
2017-05-25T07:49:24.672Z,22720
2017-05-25T07:50:47.230Z,17856
2017-05-25T07:52:09.693Z,15884
2017-05-25T07:53:31.866Z,21088
2017-05-25T07:54:54.663Z,21312
2017-05-25T07:56:16.860Z,25856
2017-05-25T07:57:39.262Z,26112
2017-05-25T07:59:01.469Z,26688
2017-05-25T08:00:23.997Z,28288
2017-05-25T08:01:46.529Z,28480
2017-05-25T08:03:09.044Z,25056
2017-05-25T08:04:31.201Z,19520
2017-05-25T08:05:54.122Z,21312
2017-05-25T08:07:16.066Z,21888
2017-05-25T08:08:38.331Z,20864
2017-05-25T08:10:00.504Z,18208
2017-05-25T08:11:22.604Z,14632
2017-05-25T08:12:44.748Z,13844
2017-05-25T08:14:06.300Z,18240
2017-05-25T08:15:28.148Z,23904
2017-05-25T08:16:50.634Z,23200
2017-05-25T08:18:12.847Z,23168
2017-05-25T08:19:35.064Z,25856
2017-05-25T08:20:57.543Z,25152
2017-05-25T08:22:20.349Z,28992
2017-05-25T08:23:42.195Z,25152
2017-05-25T08:25:04.365Z,14584
2017-05-25T08:26:26.989Z,11312
2017-05-25T08:27:49.096Z,13936
2017-05-25T08:29:11.591Z,19872
2017-05-25T08:30:33.465Z,19936
2017-05-25T08:31:55.622Z,14792
2017-05-25T08:33:18.023Z,12552
2017-05-25T08:34:40.221Z,12076
2017-05-25T08:36:02.422Z,11592
2017-05-25T08:37:23.934Z,11940
2017-05-25T08:38:46.410Z,12400
2017-05-25T08:40:08.291Z,14612
2017-05-25T08:41:30.620Z,14724
2017-05-25T08:42:52.213Z,22368
2017-05-25T08:44:14.364Z,22176
2017-05-25T08:45:36.573Z,22656
2017-05-25T08:46:58.732Z,16976
2017-05-25T08:48:20.913Z,14340
2017-05-25T08:49:43.463Z,15464
2017-05-25T08:51:05.649Z,13784
2017-05-25T08:52:27.840Z,12952
2017-05-25T08:53:50.375Z,14204
2017-05-25T08:55:12.853Z,18688
2017-05-25T08:56:34.863Z,18592
2017-05-25T08:57:57.377Z,21632
2017-05-25T08:59:19.562Z,21888
2017-05-25T09:00:42.083Z,17184
2017-05-25T09:02:04.570Z,14460
2017-05-25T09:03:26.744Z,16548
2017-05-25T09:04:48.892Z,15572
2017-05-25T09:06:11.036Z,12996
2017-05-25T09:07:33.206Z,12908
2017-05-25T09:08:54.815Z,17376
2017-05-25T09:10:17.312Z,23136
2017-05-25T09:11:40.160Z,19744
2017-05-25T09:13:02.317Z,21472
2017-05-25T09:14:27.234Z,17952
2017-05-25T09:15:49.476Z,13888
2017-05-25T09:17:11.374Z,16472
2017-05-25T09:18:33.844Z,22976
2017-05-25T09:19:56.407Z,21696
2017-05-25T09:21:18.552Z,16208
2017-05-25T09:22:41.578Z,13288
2017-05-25T09:24:03.763Z,10644
2017-05-25T09:25:26.244Z,13056
2017-05-25T09:26:48.091Z,22752
2017-05-25T09:28:10.858Z,24608
2017-05-25T09:29:33.357Z,20480
2017-05-25T09:30:55.524Z,18848
2017-05-25T09:32:17.668Z,18176
2017-05-25T09:33:40.562Z,21888
2017-05-25T09:35:03.174Z,24064
2017-05-25T09:36:25.332Z,19168
2017-05-25T09:37:47.518Z,19008
2017-05-25T09:39:10.079Z,18528
2017-05-25T09:40:31.926Z,17920
2017-05-25T09:41:54.272Z,23008
2017-05-25T09:43:16.114Z,28160
2017-05-25T09:44:38.682Z,23648
2017-05-25T09:46:01.164Z,23840
2017-05-25T09:47:23.732Z,23616
2017-05-25T09:48:45.872Z,14788
2017-05-25T09:50:08.585Z,14080
2017-05-25T09:51:30.631Z,14316
2017-05-25T09:52:52.581Z,14976
2017-05-25T09:54:14.487Z,15512
2017-05-25T09:55:36.697Z,17696
2017-05-25T09:56:58.986Z,20640
2017-05-25T09:58:21.515Z,22528
2017-05-25T09:59:43.724Z,28128
2017-05-25T10:01:06.461Z,26368
2017-05-25T10:02:28.422Z,21664
2017-05-25T10:03:50.416Z,20960
2017-05-25T10:05:12.382Z,20608
2017-05-25T10:06:35.861Z,18080
2017-05-25T10:07:58.122Z,18304
2017-05-25T10:09:19.488Z,22464
2017-05-25T10:10:41.366Z,18368
2017-05-25T10:12:04.266Z,14716
2017-05-25T10:13:26.584Z,14136
2017-05-25T10:14:48.761Z,10476
2017-05-25T10:16:10.923Z,10548
2017-05-25T10:17:33.712Z,14348
2017-05-25T10:18:55.867Z,21120
2017-05-25T10:20:18.358Z,21472
2017-05-25T10:21:40.213Z,16672
2017-05-25T10:23:02.713Z,20096
2017-05-25T10:24:25.036Z,22176
2017-05-25T10:25:47.213Z,23968
2017-05-25T10:27:09.475Z,22912
2017-05-25T10:28:32.106Z,19584
2017-05-25T10:29:53.985Z,22752
2017-05-25T10:31:16.493Z,20544
2017-05-25T10:32:38.781Z,24480
2017-05-25T10:34:01.619Z,21792
2017-05-25T10:35:23.884Z,21952
2017-05-25T10:36:46.367Z,22208
2017-05-25T10:38:07.593Z,25216
2017-05-25T10:39:30.156Z,27776
2017-05-25T10:40:52.325Z,21792
2017-05-25T10:42:14.898Z,18912
2017-05-25T10:43:37.122Z,18336
2017-05-25T10:44:59.355Z,20768
2017-05-25T10:46:21.849Z,20608
2017-05-25T10:47:44.369Z,21536
2017-05-25T10:49:06.558Z,21216
2017-05-25T10:50:28.981Z,22048
2017-05-25T10:51:51.262Z,23392
2017-05-25T10:53:13.260Z,25120
2017-05-25T10:54:35.763Z,22432
2017-05-25T10:55:58.232Z,25440
2017-05-25T10:57:20.736Z,21248
2017-05-25T10:58:42.982Z,18112
2017-05-25T11:00:05.181Z,20416
2017-05-25T11:01:28.036Z,22720
2017-05-25T11:02:50.543Z,24256
2017-05-25T11:04:13.152Z,25984
2017-05-25T11:05:35.323Z,28352
2017-05-25T11:06:57.891Z,27200
2017-05-25T11:08:20.050Z,24576
2017-05-25T11:09:42.702Z,24736
2017-05-25T11:11:04.503Z,25952
2017-05-25T11:12:26.412Z,25504
2017-05-25T11:13:48.768Z,21984
2017-05-25T11:15:10.624Z,24416
2017-05-25T11:16:32.787Z,24896
2017-05-25T11:17:55.103Z,24864
2017-05-25T11:19:17.622Z,23136
2017-05-25T11:20:39.792Z,20352
2017-05-25T11:22:02.284Z,18848
2017-05-25T11:23:25.082Z,17632
2017-05-25T11:24:47.414Z,15908
2017-05-25T11:26:09.293Z,14084
2017-05-25T11:27:32.004Z,17152
2017-05-25T11:28:54.531Z,19584
2017-05-25T11:30:17.098Z,21472
2017-05-25T11:31:39.422Z,22496
2017-05-25T11:33:01.286Z,22624
2017-05-25T11:34:23.771Z,23040
2017-05-25T11:35:45.961Z,23072
2017-05-25T11:37:07.827Z,23296
2017-05-25T11:38:30.052Z,22464
2017-05-25T11:39:52.857Z,20800
2017-05-25T11:41:14.783Z,20192
2017-05-25T11:42:37.283Z,17600
2017-05-25T11:43:58.821Z,15376
2017-05-25T11:45:21.647Z,18560
2017-05-25T11:46:43.826Z,25376
2017-05-25T11:48:06.331Z,24064
2017-05-25T11:49:28.806Z,22176
2017-05-25T11:50:51.283Z,22528
2017-05-25T11:52:13.131Z,19968
2017-05-25T11:53:34.990Z,19328
2017-05-25T11:54:57.212Z,19424
2017-05-25T11:56:20.052Z,23648
2017-05-25T11:57:42.541Z,18752
2017-05-25T11:59:04.488Z,19456
2017-05-25T12:00:26.658Z,17216
2017-05-25T12:01:49.227Z,20256
2017-05-25T12:03:11.409Z,22048
2017-05-25T12:04:33.829Z,18368
2017-05-25T12:05:55.673Z,20512
2017-05-25T12:07:17.883Z,20736
2017-05-25T12:08:40.222Z,18656
2017-05-25T12:10:02.403Z,19840
2017-05-25T12:11:24.912Z,19936
2017-05-25T12:12:47.389Z,15816
2017-05-25T12:14:08.960Z,13304
2017-05-25T12:15:31.280Z,12912
2017-05-25T12:16:53.205Z,13396
2017-05-25T12:18:15.672Z,15860
2017-05-25T12:19:38.183Z,14264
2017-05-25T12:21:00.366Z,14428
2017-05-25T12:22:22.713Z,14472
2017-05-25T12:23:45.502Z,14632
2017-05-25T12:25:07.461Z,15344
2017-05-25T12:26:29.631Z,14064
2017-05-25T12:27:51.493Z,12900
2017-05-25T12:29:13.371Z,12744
2017-05-25T12:30:35.902Z,12152
2017-05-25T12:31:58.385Z,11092
2017-05-25T12:33:20.648Z,11308
2017-05-25T12:34:43.417Z,12228
2017-05-25T12:36:05.660Z,16672
2017-05-25T12:37:28.157Z,14044
2017-05-25T12:38:50.333Z,13632
2017-05-25T12:40:12.864Z,13704
2017-05-25T12:41:35.052Z,12456
2017-05-25T12:42:57.221Z,12612
2017-05-25T12:44:19.450Z,12812
2017-05-25T12:45:41.941Z,12572
2017-05-25T12:47:04.551Z,13056
2017-05-25T12:48:26.394Z,15300
2017-05-25T12:49:48.592Z,16352
2017-05-25T12:51:11.145Z,12336
2017-05-25T12:52:33.338Z,10644
2017-05-25T12:53:55.504Z,10552
2017-05-25T12:55:17.985Z,11144
2017-05-25T12:56:39.851Z,12612
2017-05-25T12:58:02.110Z,11976
2017-05-25T12:59:24.290Z,10892
2017-05-25T13:00:46.839Z,11468
2017-05-25T13:02:09.313Z,13120
2017-05-25T13:03:30.861Z,14148
2017-05-25T13:04:53.162Z,14580
2017-05-25T13:06:15.335Z,12848
2017-05-25T13:07:37.810Z,12996
2017-05-25T13:08:59.363Z,13704
2017-05-25T13:10:21.641Z,13708
2017-05-25T13:11:43.873Z,13336
2017-05-25T13:13:06.360Z,13700
2017-05-25T13:14:28.524Z,14016
2017-05-25T13:15:50.683Z,13768
2017-05-25T13:17:12.955Z,12452
2017-05-25T13:18:35.561Z,11616
2017-05-25T13:19:57.753Z,11124
2017-05-25T13:21:19.923Z,11916
2017-05-25T13:22:42.109Z,13132
2017-05-25T13:24:04.577Z,10828
2017-05-25T13:25:26.440Z,11032
2017-05-25T13:26:48.330Z,11296
2017-05-25T13:28:10.508Z,12816
2017-05-25T13:29:33.397Z,14428
2017-05-25T13:30:55.875Z,14976
2017-05-25T13:32:18.373Z,14432
2017-05-25T13:33:40.572Z,15104
2017-05-25T13:35:03.121Z,15924
2017-05-25T13:36:25.301Z,17248
2017-05-25T13:37:47.161Z,15260
2017-05-25T13:39:09.012Z,15440
2017-05-25T13:40:31.981Z,15684
2017-05-25T13:41:53.831Z,14848
2017-05-25T13:43:16.452Z,15684
2017-05-25T13:44:38.625Z,15824
2017-05-25T13:46:01.367Z,16276
2017-05-25T13:47:23.215Z,16960
2017-05-25T13:48:45.390Z,17568
2017-05-25T13:50:07.891Z,17696
2017-05-25T13:51:30.681Z,16544
2017-05-25T13:52:52.521Z,17088
2017-05-25T13:54:14.053Z,16864
2017-05-25T13:55:36.521Z,16768
2017-05-25T13:56:59.298Z,16360
2017-05-25T13:58:21.798Z,16100
2017-05-25T13:59:44.341Z,15868
2017-05-25T14:01:06.219Z,15568
2017-05-25T14:02:28.423Z,15252
2017-05-25T14:03:50.583Z,15164
2017-05-25T14:05:12.746Z,15208
2017-05-25T14:06:35.270Z,15368
2017-05-25T14:07:58.110Z,15612
2017-05-25T14:09:20.351Z,15772
2017-05-25T14:10:42.252Z,15780
2017-05-25T14:12:04.241Z,15652
2017-05-25T14:13:26.737Z,15404
2017-05-25T14:14:49.371Z,15296
2017-05-25T14:16:11.551Z,15416
2017-05-25T14:17:34.040Z,14972
2017-05-25T14:18:55.944Z,14204
2017-05-25T14:20:18.098Z,13732
2017-05-25T14:21:40.646Z,13308
2017-05-25T14:23:03.232Z,13552
2017-05-25T14:24:25.422Z,13092
2017-05-25T14:25:47.889Z,12912
2017-05-25T14:27:10.154Z,12752
2017-05-25T14:28:32.633Z,12756
2017-05-25T14:29:55.421Z,12664
2017-05-25T14:31:17.687Z,12628
2017-05-25T14:32:39.570Z,12392
2017-05-25T14:34:02.031Z,12244
2017-05-25T14:35:24.512Z,12152
2017-05-25T14:36:47.096Z,12384
2017-05-25T14:38:09.280Z,12852
2017-05-25T14:39:31.512Z,13192
2017-05-25T14:40:53.614Z,13532
2017-05-25T14:42:15.779Z,13796
2017-05-25T14:43:38.371Z,14200
2017-05-25T14:45:00.236Z,14188
2017-05-25T14:46:23.085Z,14472
2017-05-25T14:47:44.673Z,14996
2017-05-25T14:49:07.155Z,15364
2017-05-25T14:50:29.622Z,15304
2017-05-25T14:51:52.493Z,15196
2017-05-25T14:53:14.647Z,15164
2017-05-25T14:54:36.831Z,14952
2017-05-25T14:55:59.074Z,14568
2017-05-25T14:57:21.707Z,14336
2017-05-25T14:58:44.191Z,14492
2017-05-25T15:00:06.363Z,14676
2017-05-25T15:01:28.549Z,14892
2017-05-25T15:02:51.457Z,15068
2017-05-25T15:04:13.932Z,15316
2017-05-25T15:05:36.079Z,15388
2017-05-25T15:06:57.613Z,15340
2017-05-25T15:08:20.034Z,15140
2017-05-25T15:09:42.548Z,14844
2017-05-25T15:11:04.408Z,14840
2017-05-25T15:12:26.915Z,14912
2017-05-25T15:13:49.835Z,14956
2017-05-25T15:15:12.325Z,14708
2017-05-25T15:16:34.882Z,14700
2017-05-25T15:17:57.052Z,14808
2017-05-25T15:19:20.042Z,14732
2017-05-25T15:20:42.521Z,14684
2017-05-25T15:22:04.359Z,14476
2017-05-25T15:23:26.842Z,14356
2017-05-25T15:24:48.668Z,14072
2017-05-25T15:26:11.140Z,13788
2017-05-25T15:27:33.753Z,13156
2017-05-25T15:28:56.223Z,13500
2017-05-25T15:30:19.040Z,13212
2017-05-25T15:31:40.902Z,12852
2017-05-25T15:33:02.783Z,12548
2017-05-25T15:34:24.966Z,12572
2017-05-25T15:35:47.202Z,12644
2017-05-25T15:37:09.681Z,12464
2017-05-25T15:38:31.210Z,12416
2017-05-25T15:39:53.378Z,12248
2017-05-25T15:41:16.262Z,12012
2017-05-25T15:42:38.452Z,11836
2017-05-25T15:44:00.331Z,11544
2017-05-25T15:45:22.821Z,11312
2017-05-25T15:46:45.631Z,11308
2017-05-25T15:48:07.469Z,11220
2017-05-25T15:49:29.307Z,11100
2017-05-25T15:50:51.532Z,10864
2017-05-25T15:52:13.938Z,10564
2017-05-25T15:53:36.504Z,10296
2017-05-25T15:54:58.993Z,9896
2017-05-25T15:56:21.502Z,9340
2017-05-25T15:57:44.351Z,8620
2017-05-25T15:59:06.842Z,7952
2017-05-25T16:00:28.993Z,7560
2017-05-25T16:01:51.165Z,7244
2017-05-25T16:03:14.182Z,6932
2017-05-25T16:04:36.133Z,6788
2017-05-25T16:05:58.331Z,6564
2017-05-25T16:07:19.862Z,6296
2017-05-25T16:08:42.378Z,6060
2017-05-25T16:10:04.571Z,5904
2017-05-25T16:11:26.743Z,5856
2017-05-25T16:12:48.923Z,6020
2017-05-25T16:14:11.783Z,5956
2017-05-25T16:15:34.386Z,6004
2017-05-25T16:16:56.888Z,5932
2017-05-25T16:18:19.055Z,5956
2017-05-25T16:19:41.781Z,5904
2017-05-25T16:21:03.707Z,5880
2017-05-25T16:22:25.552Z,5956
2017-05-25T16:23:48.033Z,5900
2017-05-25T16:25:10.750Z,5872
2017-05-25T16:26:32.691Z,5268
2017-05-25T16:27:54.934Z,5232
2017-05-25T16:29:17.083Z,5196
2017-05-25T16:30:39.568Z,5524
2017-05-25T16:32:02.061Z,5692
2017-05-25T16:33:24.379Z,5424
2017-05-25T16:34:46.558Z,5444
2017-05-25T16:36:08.519Z,4948
2017-05-25T16:37:31.042Z,4980
2017-05-25T16:38:53.221Z,5040
2017-05-25T16:40:14.802Z,5536
2017-05-25T16:41:37.382Z,5524
2017-05-25T16:42:59.638Z,5472
2017-05-25T16:44:21.793Z,4960
2017-05-25T16:45:44.061Z,5140
2017-05-25T16:47:06.575Z,4792
2017-05-25T16:48:28.410Z,4732
2017-05-25T16:49:50.558Z,4796
2017-05-25T16:51:12.745Z,4760
2017-05-25T16:52:35.229Z,4652
2017-05-25T16:53:57.633Z,4664
2017-05-25T16:55:19.784Z,4372
2017-05-25T16:56:41.623Z,4256
2017-05-25T16:58:04.245Z,4244
2017-05-25T16:59:26.852Z,4252
2017-05-25T17:00:48.855Z,4312
2017-05-25T17:02:11.001Z,4544
2017-05-25T17:03:33.493Z,4696
2017-05-25T17:04:55.386Z,4536
2017-05-25T17:06:17.887Z,4444
2017-05-25T17:07:40.061Z,4440
2017-05-25T17:09:02.586Z,4576
2017-05-25T17:10:23.781Z,4236
2017-05-25T17:11:45.300Z,4180
2017-05-25T17:13:07.496Z,4076
2017-05-25T17:14:29.426Z,4148
2017-05-25T17:15:51.919Z,4356
2017-05-25T17:17:14.082Z,4424
2017-05-25T17:18:36.249Z,4464
2017-05-25T17:19:59.031Z,4568
2017-05-25T17:21:20.894Z,4644
2017-05-25T17:22:43.090Z,4340
2017-05-25T17:24:04.932Z,4536
2017-05-25T17:25:27.024Z,4556
2017-05-25T17:26:49.172Z,4364
2017-05-25T17:28:11.028Z,4400
2017-05-25T17:29:33.188Z,4372
2017-05-25T17:30:55.709Z,4088
2017-05-25T17:32:18.343Z,4024
2017-05-25T17:33:41.027Z,4280
2017-05-25T17:35:03.255Z,4352
2017-05-25T17:36:26.068Z,4392
2017-05-25T17:37:47.934Z,4556
2017-05-25T17:39:09.832Z,4724
2017-05-25T17:40:32.030Z,4792
2017-05-25T17:41:54.898Z,4892
2017-05-25T17:43:17.076Z,4464
2017-05-25T17:44:38.931Z,4360
2017-05-25T17:46:01.093Z,4180
2017-05-25T17:47:23.587Z,4052
2017-05-25T17:48:45.792Z,3964
2017-05-25T17:50:08.168Z,4240
2017-05-25T17:51:30.402Z,4248
2017-05-25T17:52:53.261Z,4668
2017-05-25T17:54:15.452Z,4460
2017-05-25T17:55:38.097Z,4428
2017-05-25T17:56:59.722Z,4416
2017-05-25T17:58:22.265Z,4568
2017-05-25T17:59:44.116Z,4184
2017-05-25T18:01:06.614Z,4280
2017-05-25T18:02:28.959Z,4044
2017-05-25T18:03:51.137Z,3712
2017-05-25T18:05:12.994Z,3476
2017-05-25T18:06:35.191Z,3380
2017-05-25T18:07:57.392Z,3324
2017-05-25T18:09:20.042Z,3692
2017-05-25T18:10:42.230Z,3524
2017-05-25T18:12:04.560Z,3436
2017-05-25T18:13:26.429Z,3640
2017-05-25T18:14:49.221Z,3300
2017-05-25T18:16:11.450Z,3368
2017-05-25T18:17:33.641Z,3268
2017-05-25T18:18:56.147Z,3404